Terminal Aerodrome Forecast
Issued by NWS

Home | Current Version | Previous Version | Text Only | Print | Product List | Glossary On
Versions: 1 2 3 4 5 6 7 8 9 10 11 12 13 14 15 16 17 18 19 20 21 22 23 24 25 26 27 28 29 30 31 32 33
000
FTUS45 KSLC 211601 AAB
TAFLGU
TAF AMD
KLGU 211601Z 2116/2212 02011KT P6SM -SHRA SCT050 BKN080
      TEMPO 2116/2117 VRB10G20KT -TSRA BKN050CB
     FM211800 20011KT P6SM -SHRA BKN070 BKN100
     FM220000 17008KT P6SM VCSH SCT080 BKN100=

USA.gov is the U.S. government's official web portal to all federal, state and local government web resources and services.